Time;durP1;ratioP1;P1;durP2;ratioP2;P2;SDS_P1;SDS_P2;PMS_P1;PMS_P2;Temp;Humidity;BMP_temperature;BMP_pressure;BME280_temperature;BME280_humidity;BME280_pressure;Samples;Min_cycle;Max_cycle;Signal;HPM_P1;HPM_P2
2023/07/30 00:03:55;;;;;;;2.83;2.63;;;19.40;99.90;;;;;;10539207;28;20227;-88
2023/07/30 00:08:58;;;;;;;5.45;3.65;;;19.50;99.90;;;;;;10521128;28;20594;-87
2023/07/30 00:14:01;;;;;;;6.32;1.70;;;19.50;99.90;;;;;;10538678;28;20194;-88
2023/07/30 00:19:04;;;;;;;4.95;4.13;;;19.60;98.90;;;;;;10520256;28;20683;-88
2023/07/30 00:24:06;;;;;;;7.65;5.05;;;19.70;99.90;;;;;;10538269;28;20198;-88
2023/07/30 00:29:09;;;;;;;4.68;4.25;;;19.50;99.90;;;;;;10538308;28;20569;-88
2023/07/30 00:34:12;;;;;;;3.55;3.25;;;19.40;99.90;;;;;;10519856;28;20259;-88
2023/07/30 00:39:14;;;;;;;4.90;3.08;;;19.20;99.90;;;;;;10519593;28;20221;-88
2023/07/30 00:44:17;;;;;;;3.70;3.40;;;19.10;99.90;;;;;;10519122;28;20251;-88
2023/07/30 00:49:19;;;;;;;6.13;4.90;;;19.10;99.90;;;;;;10519730;28;20880;-88
2023/07/30 00:54:23;;;;;;;7.55;5.95;;;19.00;99.90;;;;;;10537530;28;20256;-88
2023/07/30 00:59:26;;;;;;;4.75;3.35;;;18.80;99.90;;;;;;10537752;28;20214;-88
2023/07/30 01:04:30;;;;;;;5.50;5.00;;;18.70;99.90;;;;;;10519419;28;20198;-87
2023/07/30 01:09:33;;;;;;;10.30;6.68;;;18.60;99.90;;;;;;10536433;28;20259;-88
2023/07/30 01:14:37;;;;;;;8.88;6.07;;;18.40;99.90;;;;;;10536998;28;20206;-88
2023/07/30 01:19:40;;;;;;;8.10;4.53;;;18.30;99.90;;;;;;10536049;28;20217;-88
2023/07/30 01:24:43;;;;;;;7.55;5.03;;;18.20;99.90;;;;;;10518721;28;20753;-88
2023/07/30 01:29:56;;;;;;;7.53;6.93;;;18.10;99.90;;;;;;10536754;28;20194;-88
2023/07/30 01:35:00;;;;;;;3.28;2.70;;;18.20;99.90;;;;;;10518418;28;20628;-88
2023/07/30 01:40:03;;;;;;;5.10;4.68;;;18.10;99.90;;;;;;10517720;28;20347;-88
2023/07/30 01:45:06;;;;;;;9.40;6.93;;;18.10;99.90;;;;;;10536472;28;20205;-88
2023/07/30 01:50:10;;;;;;;9.13;7.78;;;18.20;99.90;;;;;;10509836;28;20223;-88
2023/07/30 01:55:12;;;;;;;6.88;5.60;;;18.20;99.90;;;;;;10523108;28;20247;-88
2023/07/30 02:00:15;;;;;;;4.38;3.50;;;18.10;99.90;;;;;;10543845;28;20630;-88
2023/07/30 02:05:17;;;;;;;3.70;3.13;;;18.00;99.90;;;;;;10525034;28;20206;-88
2023/07/30 02:10:20;;;;;;;4.68;4.28;;;18.10;99.90;;;;;;10566215;28;20289;-88
2023/07/30 02:15:22;;;;;;;7.55;5.75;;;18.30;99.90;;;;;;10585482;28;20196;-88
2023/07/30 02:20:25;;;;;;;7.75;5.03;;;18.30;99.90;;;;;;10550156;28;20224;-88
2023/07/30 02:25:28;;;;;;;5.32;4.32;;;18.30;99.90;;;;;;10566621;28;20192;-88
2023/07/30 02:30:32;;;;;;;10.18;6.22;;;18.30;99.90;;;;;;10584639;28;20277;-88
2023/07/30 02:35:35;;;;;;;2.28;2.08;;;18.20;99.90;;;;;;10566273;28;20205;-88
2023/07/30 02:40:37;;;;;;;4.45;4.05;;;18.20;99.90;;;;;;10565277;28;20233;-88
2023/07/30 02:45:40;;;;;;;6.40;4.53;;;18.40;99.90;;;;;;10548594;28;20258;-88
2023/07/30 02:50:42;;;;;;;6.28;5.63;;;18.40;99.90;;;;;;10566016;28;20559;-88
2023/07/30 02:55:45;;;;;;;8.88;5.88;;;18.30;99.90;;;;;;10565094;28;20270;-88
2023/07/30 03:00:47;;;;;;;6.45;5.85;;;18.40;99.90;;;;;;10583618;28;20247;-87
2023/07/30 03:05:50;;;;;;;5.75;5.25;;;18.50;99.90;;;;;;10562773;28;20229;-88
2023/07/30 03:10:53;;;;;;;10.23;8.85;;;18.50;99.90;;;;;;10564149;28;20258;-88
2023/07/30 03:15:55;;;;;;;6.65;5.03;;;18.40;99.90;;;;;;10582923;28;20227;-88
2023/07/30 03:21:00;;;;;;;7.05;6.35;;;18.30;99.90;;;;;;10583217;28;20216;-88
2023/07/30 03:26:02;;;;;;;9.13;8.23;;;18.20;99.90;;;;;;10564253;28;20274;-88
2023/07/30 03:31:06;;;;;;;10.35;7.97;;;18.00;99.90;;;;;;10582244;28;20597;-88
2023/07/30 03:36:09;;;;;;;7.82;7.05;;;17.90;99.90;;;;;;10563011;28;20201;-88
2023/07/30 03:41:12;;;;;;;13.52;8.27;;;17.80;99.90;;;;;;10563330;28;20225;-88
2023/07/30 03:46:14;;;;;;;12.80;8.05;;;17.90;99.90;;;;;;10581722;28;20555;-88
2023/07/30 03:51:17;;;;;;;4.65;4.22;;;17.90;99.90;;;;;;10562933;28;20205;-88
2023/07/30 03:56:20;;;;;;;8.60;5.03;;;18.10;99.90;;;;;;10562636;28;20262;-88
2023/07/30 04:01:23;;;;;;;6.53;5.18;;;18.10;99.90;;;;;;10545875;28;20216;-88
2023/07/30 04:06:26;;;;;;;4.28;3.92;;;18.10;99.90;;;;;;10562670;28;20658;-88
2023/07/30 04:11:28;;;;;;;7.63;5.38;;;18.20;99.90;;;;;;10580640;28;20231;-88
2023/07/30 04:16:32;;;;;;;5.38;3.58;;;18.40;99.90;;;;;;10561481;28;20201;-88
2023/07/30 04:21:34;;;;;;;14.10;9.77;;;18.50;99.90;;;;;;10580498;28;20556;-88
2023/07/30 04:26:37;;;;;;;5.22;4.78;;;18.50;99.90;;;;;;10579682;28;20735;-87
2023/07/30 04:31:40;;;;;;;8.45;5.53;;;18.50;99.90;;;;;;10561209;28;20213;-88
2023/07/30 04:36:43;;;;;;;5.80;4.43;;;18.50;99.90;;;;;;10561265;28;20200;-88
2023/07/30 04:41:46;;;;;;;12.18;10.18;;;18.50;99.90;;;;;;10561134;28;20225;-87
2023/07/30 04:46:49;;;;;;;14.38;10.57;;;18.60;99.90;;;;;;10562051;28;20252;-88
2023/07/30 04:51:52;;;;;;;10.45;7.35;;;18.60;99.90;;;;;;10561187;28;20690;-88
2023/07/30 04:56:55;;;;;;;9.48;8.55;;;18.70;99.90;;;;;;10543916;28;20231;-88
2023/07/30 05:01:57;;;;;;;9.20;8.10;;;18.70;99.90;;;;;;10560546;28;20271;-88
2023/07/30 05:07:00;;;;;;;9.05;8.15;;;18.80;99.90;;;;;;10560587;28;20650;-88
2023/07/30 05:12:03;;;;;;;3.88;3.53;;;18.90;99.90;;;;;;10578833;28;20208;-88
2023/07/30 05:17:05;;;;;;;5.05;4.50;;;18.80;99.90;;;;;;10578524;28;20223;-87
2023/07/30 05:22:09;;;;;;;5.63;4.95;;;18.90;99.90;;;;;;10560197;28;20286;-88
2023/07/30 05:27:11;;;;;;;7.63;6.65;;;19.00;99.90;;;;;;10578396;28;20588;-88
2023/07/30 05:32:14;;;;;;;13.10;10.63;;;19.30;99.90;;;;;;10569362;28;20215;-88
2023/07/30 05:37:16;;;;;;;3.17;2.88;;;19.30;99.90;;;;;;10568670;28;20201;-88
2023/07/30 05:42:19;;;;;;;9.40;6.05;;;19.50;99.90;;;;;;10587449;28;20213;-87
2023/07/30 05:47:21;;;;;;;7.43;5.70;;;19.60;99.90;;;;;;10588192;28;20189;-88
2023/07/30 05:52:24;;;;;;;2.60;2.40;;;19.70;99.90;;;;;;10587553;28;20577;-88
2023/07/30 05:57:26;;;;;;;9.63;7.60;;;19.70;98.10;;;;;;10586978;28;20213;-88
2023/07/30 06:02:29;;;;;;;4.38;3.97;;;19.80;99.90;;;;;;10585429;28;20229;-88
2023/07/30 06:07:31;;;;;;;5.93;5.32;;;19.90;98.70;;;;;;10585048;28;20250;-88
2023/07/30 06:12:34;;;;;;;6.88;6.20;;;20.00;98.70;;;;;;10584911;28;20213;-87
2023/07/30 06:17:36;;;;;;;6.95;6.25;;;20.00;99.90;;;;;;10585858;28;20239;-88
2023/07/30 06:22:39;;;;;;;3.60;3.20;;;19.90;99.90;;;;;;10585404;28;20283;-87
2023/07/30 06:27:41;;;;;;;9.60;6.03;;;20.10;96.70;;;;;;10566413;28;20250;-87
2023/07/30 06:32:44;;;;;;;10.15;7.25;;;20.20;97.80;;;;;;10550000;28;20209;-88
2023/07/30 06:37:47;;;;;;;8.27;5.82;;;20.30;98.30;;;;;;10550048;28;20201;-88
2023/07/30 06:42:49;;;;;;;10.98;7.25;;;20.40;98.50;;;;;;10583748;28;20217;-87
2023/07/30 06:47:52;;;;;;;10.20;9.18;;;20.40;99.60;;;;;;10566498;28;20231;-88
2023/07/30 06:52:54;;;;;;;5.85;4.20;;;20.40;99.90;;;;;;10584395;28;20246;-87
2023/07/30 06:57:57;;;;;;;7.47;6.68;;;20.50;97.70;;;;;;10584461;28;20266;-88
2023/07/30 07:03:00;;;;;;;4.82;4.25;;;20.50;99.10;;;;;;10583380;28;20225;-88
2023/07/30 07:08:03;;;;;;;5.07;4.57;;;20.60;95.20;;;;;;10565887;28;20225;-88
2023/07/30 07:13:05;;;;;;;6.30;5.05;;;20.70;96.00;;;;;;10582994;28;20217;-87
2023/07/30 07:18:08;;;;;;;6.57;4.55;;;20.80;98.60;;;;;;10564053;28;20277;-88
2023/07/30 07:23:11;;;;;;;2.92;2.72;;;20.80;96.70;;;;;;10564311;28;20228;-88
2023/07/30 07:28:16;;;;;;;6.25;5.65;;;21.00;92.20;;;;;;10583118;27;20250;-88
2023/07/30 07:33:18;;;;;;;5.15;3.38;;;21.00;96.60;;;;;;10582657;28;20222;-88
2023/07/30 07:38:21;;;;;;;3.92;3.63;;;21.10;92.90;;;;;;10564453;28;20258;-88
2023/07/30 07:43:24;;;;;;;4.57;4.20;;;21.20;94.70;;;;;;10581954;28;20631;-88
2023/07/30 07:48:27;;;;;;;4.95;4.53;;;21.20;96.10;;;;;;10582104;28;20553;-87
2023/07/30 07:53:29;;;;;;;6.43;5.32;;;21.30;93.80;;;;;;10562842;28;20205;-87
2023/07/30 07:58:32;;;;;;;3.53;3.22;;;21.40;96.10;;;;;;10563213;28;20761;-87
2023/07/30 08:03:35;;;;;;;10.50;7.32;;;21.50;91.40;;;;;;10563515;28;20258;-87
2023/07/30 08:08:38;;;;;;;4.75;4.22;;;21.60;96.70;;;;;;10581027;28;20274;-87
2023/07/30 08:13:41;;;;;;;4.63;4.22;;;21.60;94.80;;;;;;10581308;28;20273;-87
2023/07/30 08:18:43;;;;;;;6.85;5.03;;;21.60;94.90;;;;;;10580914;28;20197;-88
2023/07/30 08:23:46;;;;;;;6.40;5.80;;;21.60;93.90;;;;;;10580809;28;20217;-87
2023/07/30 08:28:48;;;;;;;9.25;6.70;;;21.60;94.80;;;;;;10580841;28;20201;-87
2023/07/30 08:33:51;;;;;;;7.20;6.45;;;21.70;95.80;;;;;;10579769;28;20254;-88
2023/07/30 08:38:53;;;;;;;6.38;4.53;;;21.90;94.80;;;;;;10580434;28;20223;-88
2023/07/30 08:43:56;;;;;;;5.93;5.43;;;22.10;93.40;;;;;;10579234;28;20251;-88
2023/07/30 08:48:59;;;;;;;6.38;5.78;;;22.10;91.80;;;;;;10545983;28;20200;-88
2023/07/30 08:54:02;;;;;;;8.95;5.70;;;22.20;91.50;;;;;;10579732;28;20246;-88
2023/07/30 08:59:06;;;;;;;3.58;3.20;;;22.30;89.50;;;;;;10579503;28;20250;-88
2023/07/30 09:04:09;;;;;;;6.32;5.82;;;22.40;84.80;;;;;;10566517;28;20220;-88
2023/07/30 09:09:13;;;;;;;4.70;4.07;;;22.70;91.60;;;;;;10588459;28;20697;-88
2023/07/30 09:14:20;;;;;;;5.40;4.75;;;22.80;87.30;;;;;;10587038;27;20217;-88
2023/07/30 09:19:23;;;;;;;8.13;6.25;;;23.00;89.00;;;;;;10587348;28;20205;-88
2023/07/30 09:24:26;;;;;;;9.63;6.75;;;23.20;92.20;;;;;;10588231;28;20220;-88
2023/07/30 09:29:28;;;;;;;4.63;4.22;;;23.20;92.40;;;;;;10587653;28;20230;-88
2023/07/30 09:34:31;;;;;;;3.65;3.35;;;23.20;80.50;;;;;;10587509;28;20586;-88
2023/07/30 09:39:37;;;;;;;3.33;3.03;;;23.30;75.70;;;;;;10587179;28;20201;-88
2023/07/30 09:44:40;;;;;;;4.25;3.85;;;23.40;76.20;;;;;;10587195;28;20246;-88
2023/07/30 09:49:43;;;;;;;4.28;3.88;;;23.40;77.40;;;;;;10586023;28;20200;-88
2023/07/30 09:54:46;;;;;;;4.63;4.22;;;23.40;75.50;;;;;;10586884;28;20197;-88
2023/07/30 09:59:53;;;;;;;5.32;3.38;;;23.60;76.10;;;;;;10585877;28;20671;-88
2023/07/30 10:04:58;;;;;;;5.18;3.40;;;23.70;76.70;;;;;;10585374;28;20278;-88
2023/07/30 10:10:03;;;;;;;3.17;2.92;;;23.70;71.90;;;;;;10528720;28;20230;-88
2023/07/30 10:15:07;;;;;;;3.67;3.28;;;23.80;69.10;;;;;;10524679;28;20311;-88
2023/07/30 10:20:25;;;;;;;3.30;3.10;;;23.80;68.00;;;;;;10525666;28;20548;-88
2023/07/30 10:25:46;;;;;;;3.08;2.80;;;23.90;70.40;;;;;;10542320;28;20703;-88
2023/07/30 10:31:03;;;;;;;4.90;3.38;;;23.90;63.90;;;;;;10525046;28;20250;-88
2023/07/30 10:36:07;;;;;;;3.42;3.13;;;23.70;67.10;;;;;;10507605;28;20201;-88
2023/07/30 10:41:13;;;;;;;3.17;2.88;;;23.70;61.20;;;;;;10525079;28;20194;-88
2023/07/30 10:46:18;;;;;;;4.70;3.17;;;23.70;62.00;;;;;;10541912;28;20213;-88
2023/07/30 10:51:22;;;;;;;2.65;2.25;;;23.70;60.70;;;;;;10542182;28;20194;-89
2023/07/30 10:56:25;;;;;;;3.90;3.53;;;23.80;65.20;;;;;;10542361;28;20193;-89
2023/07/30 11:01:27;;;;;;;3.88;2.17;;;24.00;59.50;;;;;;10541103;28;20753;-88
2023/07/30 11:06:30;;;;;;;3.70;3.40;;;23.90;63.50;;;;;;10540639;28;20270;-88
2023/07/30 11:11:33;;;;;;;3.70;2.50;;;23.90;59.70;;;;;;10523270;28;20198;-88
2023/07/30 11:16:39;;;;;;;3.75;3.45;;;24.30;64.20;;;;;;10505685;28;20274;-88
2023/07/30 11:21:49;;;;;;;5.43;3.22;;;24.30;56.50;;;;;;10522263;28;20283;-88
2023/07/30 11:26:59;;;;;;;3.80;3.50;;;24.20;55.60;;;;;;10539841;28;20194;-89
2023/07/30 11:32:02;;;;;;;3.55;3.25;;;24.20;58.40;;;;;;10540456;28;20198;-89
2023/07/30 11:37:06;;;;;;;2.22;2.03;;;24.20;55.80;;;;;;10539383;28;20209;-88
2023/07/30 11:42:09;;;;;;;3.53;3.22;;;24.30;64.20;;;;;;10521787;28;20765;-89
2023/07/30 11:47:20;;;;;;;3.80;3.08;;;24.50;58.90;;;;;;10539330;28;20206;-88
2023/07/30 11:52:22;;;;;;;2.40;2.13;;;24.60;55.40;;;;;;10504549;28;20202;-88
2023/07/30 11:57:33;;;;;;;3.28;2.88;;;24.60;55.90;;;;;;10539021;28;20266;-88
2023/07/30 12:02:36;;;;;;;2.45;2.25;;;24.40;55.60;;;;;;10539401;28;20274;-88
2023/07/30 12:07:42;;;;;;;2.72;2.42;;;24.30;56.00;;;;;;10520266;28;20234;-89
2023/07/30 12:12:46;;;;;;;3.10;2.90;;;24.20;57.40;;;;;;10519914;28;20231;-88
2023/07/30 12:17:48;;;;;;;3.78;3.33;;;24.20;54.70;;;;;;10539118;28;20202;-88
2023/07/30 12:22:51;;;;;;;2.72;2.53;;;24.20;52.70;;;;;;10537626;28;20302;-89
2023/07/30 12:27:53;;;;;;;5.78;2.53;;;24.20;55.40;;;;;;10537655;28;20264;-88
2023/07/30 12:32:56;;;;;;;3.10;2.90;;;24.30;57.20;;;;;;10537367;28;20255;-88
2023/07/30 12:38:00;;;;;;;3.40;3.17;;;24.10;55.90;;;;;;10519521;28;20205;-89
2023/07/30 12:43:03;;;;;;;2.85;2.03;;;24.00;56.00;;;;;;10537963;28;20236;-88
2023/07/30 12:48:07;;;;;;;2.35;2.17;;;24.00;59.70;;;;;;10538152;28;20247;-88
2023/07/30 12:53:11;;;;;;;2.20;1.98;;;24.20;65.50;;;;;;10538397;28;20209;-89
2023/07/30 12:58:13;;;;;;;4.68;3.30;;;24.20;66.20;;;;;;10538409;28;20202;-88
2023/07/30 13:03:16;;;;;;;3.25;2.67;;;24.20;61.00;;;;;;10537244;28;20226;-88
2023/07/30 13:08:18;;;;;;;3.97;3.67;;;24.10;60.30;;;;;;10537039;28;20221;-89
2023/07/30 13:13:21;;;;;;;2.78;1.48;;;24.00;55.50;;;;;;10537280;28;20206;-88
2023/07/30 13:18:24;;;;;;;4.50;2.85;;;24.00;58.70;;;;;;10518973;28;20206;-89
2023/07/30 13:23:26;;;;;;;1.85;1.75;;;23.90;58.00;;;;;;10537176;28;20595;-89
2023/07/30 13:28:29;;;;;;;3.20;2.90;;;24.00;60.80;;;;;;10536360;28;20235;-89
2023/07/30 13:33:31;;;;;;;2.30;2.10;;;23.80;55.30;;;;;;10536464;28;20586;-89
2023/07/30 13:38:34;;;;;;;2.13;1.92;;;23.70;58.00;;;;;;10536573;28;20210;-88
2023/07/30 13:43:36;;;;;;;4.00;2.10;;;23.70;60.20;;;;;;10535878;28;20221;-88
2023/07/30 13:48:39;;;;;;;3.17;2.88;;;23.80;59.20;;;;;;10518997;28;20206;-88
2023/07/30 13:53:42;;;;;;;2.10;1.90;;;23.80;58.40;;;;;;10545004;28;20239;-89
2023/07/30 13:58:44;;;;;;;2.60;2.40;;;24.00;60.30;;;;;;10526565;28;20201;-88
2023/07/30 14:03:47;;;;;;;2.47;1.52;;;24.20;56.70;;;;;;10525768;28;20226;-89
2023/07/30 14:08:49;;;;;;;1.75;1.50;;;;;;;;;;10544056;28;20271;-88
2023/07/30 14:13:52;;;;;;;1.45;1.35;;;24.60;56.00;;;;;;10525579;28;20210;-89
2023/07/30 14:18:54;;;;;;;1.95;1.75;;;24.90;56.30;;;;;;10525358;28;20202;-89
2023/07/30 14:23:57;;;;;;;3.42;2.60;;;25.10;50.90;;;;;;10541764;28;20225;-88
2023/07/30 14:28:59;;;;;;;2.95;2.75;;;25.30;47.00;;;;;;10524993;28;20201;-89
2023/07/30 14:34:02;;;;;;;2.33;2.13;;;25.10;45.30;;;;;;10524258;28;20672;-89
2023/07/30 14:39:04;;;;;;;2.97;1.80;;;25.00;48.20;;;;;;10524802;28;20236;-88
2023/07/30 14:44:07;;;;;;;3.33;2.28;;;24.80;48.80;;;;;;10524753;28;20279;-88
2023/07/30 14:49:10;;;;;;;2.53;2.33;;;24.70;49.40;;;;;;10542597;28;20194;-88
2023/07/30 14:54:12;;;;;;;2.65;2.45;;;24.60;49.00;;;;;;10542372;28;20583;-88
2023/07/30 14:59:15;;;;;;;2.70;2.50;;;24.40;50.60;;;;;;10541249;28;20246;-88
2023/07/30 15:04:17;;;;;;;6.45;2.10;;;24.10;60.30;;;;;;10540976;28;20229;-89
2023/07/30 15:09:20;;;;;;;3.47;1.67;;;23.60;74.80;;;;;;10556099;28;20317;-89
2023/07/30 15:14:22;;;;;;;4.30;1.80;;;23.20;90.50;;;;;;10583775;28;20566;-89
2023/07/30 15:19:25;;;;;;;2.45;2.25;;;22.80;93.30;;;;;;10583362;28;20188;-89
2023/07/30 15:24:27;;;;;;;4.30;2.08;;;22.40;86.30;;;;;;10564961;28;20209;-89
2023/07/30 15:29:30;;;;;;;4.05;2.53;;;22.10;96.60;;;;;;10582965;28;20258;-89
2023/07/30 15:34:32;;;;;;;6.22;2.72;;;21.70;99.90;;;;;;10563876;28;20261;-89
2023/07/30 15:39:36;;;;;;;3.65;2.70;;;21.60;99.90;;;;;;10563987;28;20570;-89
2023/07/30 15:44:39;;;;;;;3.42;2.65;;;21.70;99.90;;;;;;10580879;28;20216;-89
2023/07/30 15:49:41;;;;;;;2.75;2.22;;;21.90;99.90;;;;;;10582066;28;20189;-89
2023/07/30 15:54:44;;;;;;;4.95;3.05;;;22.00;99.90;;;;;;10580875;28;20204;-89
2023/07/30 15:59:47;;;;;;;2.97;2.78;;;22.20;95.10;;;;;;10581736;28;20250;-89
2023/07/30 16:04:50;;;;;;;6.10;3.08;;;22.30;94.50;;;;;;10581196;28;20629;-89
2023/07/30 16:09:52;;;;;;;3.45;2.03;;;22.50;92.60;;;;;;10546337;28;20229;-89
2023/07/30 16:14:55;;;;;;;3.03;2.78;;;22.60;94.30;;;;;;10562581;28;20201;-89
2023/07/30 16:19:58;;;;;;;4.18;1.83;;;22.60;95.20;;;;;;10581656;28;20525;-89
2023/07/30 16:25:00;;;;;;;4.93;2.17;;;22.60;99.80;;;;;;10562336;28;20220;-89
2023/07/30 16:30:04;;;;;;;2.40;1.95;;;22.70;99.50;;;;;;10581582;28;20193;-89
2023/07/30 16:35:07;;;;;;;2.70;2.50;;;23.00;99.90;;;;;;10563190;28;20249;-89
2023/07/30 16:40:10;;;;;;;2.72;2.53;;;23.20;96.20;;;;;;10579834;28;20222;-89
2023/07/30 16:45:12;;;;;;;4.18;2.35;;;23.40;91.30;;;;;;10562236;27;20214;-89
2023/07/30 16:50:15;;;;;;;5.50;2.65;;;23.50;88.40;;;;;;10579904;28;20230;-89
2023/07/30 16:55:17;;;;;;;3.80;2.50;;;23.60;94.50;;;;;;10545041;28;20209;-89
2023/07/30 17:00:20;;;;;;;5.20;2.38;;;23.50;95.40;;;;;;10581999;28;20201;-89
2023/07/30 17:05:24;;;;;;;3.60;2.72;;;23.40;96.50;;;;;;10581902;28;20220;-89
2023/07/30 17:10:26;;;;;;;3.47;2.28;;;23.20;96.40;;;;;;10561599;28;20262;-88
2023/07/30 17:15:29;;;;;;;2.90;2.08;;;23.00;96.90;;;;;;10560596;28;20239;-89
2023/07/30 17:20:32;;;;;;;2.45;2.25;;;22.70;97.80;;;;;;10561899;28;20188;-89
2023/07/30 17:25:35;;;;;;;3.05;2.85;;;22.50;97.40;;;;;;10584246;28;20208;-89
2023/07/30 17:30:38;;;;;;;4.13;2.60;;;22.40;93.10;;;;;;10569878;28;20246;-89
2023/07/30 17:35:41;;;;;;;2.78;2.58;;;22.40;98.50;;;;;;10569239;28;20558;-87
2023/07/30 17:40:54;;;;;;;2.70;2.50;;;22.30;93.40;;;;;;10569684;28;20197;-89
2023/07/30 17:45:57;;;;;;;3.10;2.90;;;22.40;95.60;;;;;;10586297;28;20568;-89
2023/07/30 17:50:59;;;;;;;3.60;3.10;;;22.50;90.50;;;;;;10587199;28;20219;-89
2023/07/30 17:56:02;;;;;;;3.13;2.92;;;22.50;91.50;;;;;;10585906;28;20231;-89
2023/07/30 18:01:05;;;;;;;2.78;2.58;;;22.40;84.90;;;;;;10587219;28;20251;-89
2023/07/30 18:06:08;;;;;;;3.03;2.83;;;22.30;91.70;;;;;;10585529;28;20274;-89
2023/07/30 18:11:13;;;;;;;3.10;2.53;;;22.20;92.70;;;;;;10587376;28;20203;-89
2023/07/30 18:16:15;;;;;;;6.88;2.85;;;22.00;92.40;;;;;;10586265;28;20562;-88
2023/07/30 18:21:18;;;;;;;3.50;3.20;;;21.80;92.40;;;;;;10584861;28;20636;-89
2023/07/30 18:26:20;;;;;;;2.95;2.72;;;21.70;92.70;;;;;;10585806;28;20217;-89
2023/07/30 18:31:23;;;;;;;4.43;3.40;;;21.50;92.20;;;;;;10585867;28;20536;-88
2023/07/30 18:36:26;;;;;;;6.75;3.58;;;21.30;92.70;;;;;;10584939;28;20247;-89
2023/07/30 18:41:29;;;;;;;3.03;2.72;;;21.00;93.70;;;;;;10567264;28;20622;-89
2023/07/30 18:46:31;;;;;;;3.67;3.08;;;20.80;93.70;;;;;;10566686;28;20217;-89
2023/07/30 18:51:34;;;;;;;2.47;2.28;;;20.60;93.50;;;;;;10583822;28;20610;-89
2023/07/30 18:56:36;;;;;;;2.30;2.10;;;20.40;91.90;;;;;;10565902;28;20201;-89
2023/07/30 19:01:40;;;;;;;2.35;2.15;;;20.30;90.80;;;;;;10566401;28;20196;-89
2023/07/30 19:06:42;;;;;;;3.90;3.10;;;20.10;90.60;;;;;;10565321;28;20285;-89
2023/07/30 19:11:45;;;;;;;3.63;3.13;;;20.00;90.90;;;;;;10583309;28;20258;-89
2023/07/30 19:16:47;;;;;;;4.72;3.78;;;19.70;92.80;;;;;;10583410;28;20197;-89
2023/07/30 19:21:50;;;;;;;7.50;3.75;;;19.40;95.00;;;;;;10583033;28;20205;-89
2023/07/30 19:26:52;;;;;;;3.58;2.97;;;19.10;96.50;;;;;;10582538;28;20225;-88
2023/07/30 19:31:55;;;;;;;3.15;2.85;;;19.00;96.40;;;;;;10582835;28;20259;-89
2023/07/30 19:36:57;;;;;;;6.72;2.85;;;18.80;96.40;;;;;;10581653;28;20200;-88
2023/07/30 19:42:00;;;;;;;2.95;2.40;;;18.70;96.70;;;;;;10581580;28;20213;-89
2023/07/30 19:47:03;;;;;;;2.58;2.38;;;18.60;95.80;;;;;;10545741;28;20220;-89
2023/07/30 19:52:07;;;;;;;4.05;3.13;;;18.50;97.60;;;;;;10564013;28;20205;-89
2023/07/30 19:57:09;;;;;;;3.53;2.60;;;18.40;98.90;;;;;;10581260;28;20258;-89
2023/07/30 20:02:11;;;;;;;3.47;2.58;;;18.20;99.90;;;;;;10563675;28;20556;-89
2023/07/30 20:07:14;;;;;;;3.88;2.40;;;18.10;99.90;;;;;;10581012;28;20286;-89
2023/07/30 20:12:17;;;;;;;3.28;2.97;;;18.00;99.90;;;;;;10581197;28;20188;-88
2023/07/30 20:17:19;;;;;;;6.55;2.88;;;18.00;99.90;;;;;;10580472;28;20209;-89
2023/07/30 20:22:22;;;;;;;2.63;2.42;;;18.10;99.90;;;;;;10563120;28;20197;-89
2023/07/30 20:27:25;;;;;;;2.90;2.67;;;18.10;99.90;;;;;;10580751;28;20281;-89
2023/07/30 20:32:27;;;;;;;4.88;2.45;;;18.10;99.90;;;;;;10562468;28;20261;-88
2023/07/30 20:37:30;;;;;;;6.80;2.83;;;18.10;99.90;;;;;;10562060;28;20205;-89
2023/07/30 20:42:32;;;;;;;3.80;2.95;;;18.10;99.90;;;;;;10579962;28;20205;-89
2023/07/30 20:47:35;;;;;;;6.88;2.97;;;18.20;99.70;;;;;;10562327;28;20212;-89
2023/07/30 20:52:37;;;;;;;2.85;2.58;;;18.30;98.60;;;;;;10580337;28;20561;-89
2023/07/30 20:57:40;;;;;;;3.40;3.08;;;18.40;97.90;;;;;;10580097;28;20290;-89
2023/07/30 21:02:43;;;;;;;5.38;2.72;;;18.60;97.10;;;;;;10562222;28;20197;-89
2023/07/30 21:07:45;;;;;;;3.28;2.97;;;18.70;96.20;;;;;;10561415;28;20594;-89
2023/07/30 21:12:48;;;;;;;4.32;3.03;;;18.80;95.60;;;;;;10583508;28;20238;-89
2023/07/30 21:17:50;;;;;;;3.97;2.80;;;19.10;94.80;;;;;;10560216;28;20213;-89
2023/07/30 21:22:53;;;;;;;2.60;2.40;;;19.20;93.70;;;;;;10578510;28;20733;-89
2023/07/30 21:27:55;;;;;;;2.85;2.63;;;19.50;92.80;;;;;;10578405;28;20221;-89
2023/07/30 21:33:00;;;;;;;3.42;2.75;;;19.60;92.50;;;;;;10578524;28;20193;-89
2023/07/30 21:38:03;;;;;;;2.67;2.38;;;19.60;92.40;;;;;;10560372;28;20748;-89
2023/07/30 21:43:05;;;;;;;2.10;1.90;;;19.70;92.30;;;;;;10579072;28;20246;-89
2023/07/30 21:48:08;;;;;;;3.47;2.53;;;19.80;92.10;;;;;;10560874;28;20220;-89
2023/07/30 21:53:10;;;;;;;2.83;2.50;;;19.90;91.80;;;;;;10560466;28;20197;-89
2023/07/30 21:58:13;;;;;;;2.00;1.83;;;19.70;91.30;;;;;;10560110;28;20278;-89
2023/07/30 22:03:15;;;;;;;2.40;1.88;;;20.10;90.30;;;;;;10578882;28;20622;-89
2023/07/30 22:08:19;;;;;;;2.42;2.03;;;20.10;89.20;;;;;;10559285;28;20255;-89
2023/07/30 22:13:21;;;;;;;1.25;1.15;;;20.10;88.40;;;;;;10567081;28;20185;-89
2023/07/30 22:18:24;;;;;;;2.17;1.35;;;20.10;84.90;;;;;;10586164;28;20250;-89
2023/07/30 22:23:27;;;;;;;2.95;2.55;;;19.90;83.50;;;;;;10585555;28;20616;-89
2023/07/30 22:28:29;;;;;;;3.47;1.70;;;19.90;87.10;;;;;;10584797;28;20305;-89
2023/07/30 22:33:32;;;;;;;2.25;1.58;;;19.90;85.10;;;;;;10585603;28;20220;-89
2023/07/30 22:38:34;;;;;;;2.22;1.60;;;19.70;85.50;;;;;;10585463;28;20201;-89
2023/07/30 22:43:37;;;;;;;1.90;1.80;;;19.70;85.20;;;;;;10585177;28;20559;-89
2023/07/30 22:48:39;;;;;;;2.40;1.83;;;19.70;86.90;;;;;;10584308;28;20273;-89
2023/07/30 22:53:42;;;;;;;3.47;2.45;;;19.60;87.80;;;;;;10567155;28;20214;-88
2023/07/30 22:58:45;;;;;;;2.22;2.03;;;19.40;89.10;;;;;;10549054;28;20663;-88
2023/07/30 23:03:49;;;;;;;2.05;1.67;;;19.40;90.30;;;;;;10566091;28;20748;-88
2023/07/30 23:08:51;;;;;;;2.60;2.40;;;19.40;90.70;;;;;;10583745;28;20225;-89
2023/07/30 23:13:54;;;;;;;2.35;2.00;;;19.50;90.70;;;;;;10583001;28;20205;-88
2023/07/30 23:18:57;;;;;;;2.15;1.73;;;19.60;91.90;;;;;;10583623;28;20242;-89
2023/07/30 23:24:01;;;;;;;2.70;2.13;;;19.50;93.80;;;;;;10582226;28;20262;-89
2023/07/30 23:29:04;;;;;;;2.72;2.30;;;19.20;94.80;;;;;;10564015;28;20273;-89
2023/07/30 23:34:06;;;;;;;2.75;2.50;;;19.20;94.80;;;;;;10582894;28;20607;-89
2023/07/30 23:39:09;;;;;;;3.00;2.70;;;18.90;96.90;;;;;;10582000;28;20569;-89
2023/07/30 23:44:11;;;;;;;3.30;2.90;;;18.80;96.10;;;;;;10582231;28;20209;-88
2023/07/30 23:49:14;;;;;;;3.20;2.47;;;18.90;95.80;;;;;;10563728;28;20683;-89
2023/07/30 23:54:16;;;;;;;2.58;1.75;;;18.90;97.20;;;;;;10564371;28;20576;-88
2023/07/30 23:59:19;;;;;;;3.85;2.28;;;19.00;98.00;;;;;;10581625;28;20588;-88
